revista ivao-mx

La Revista Oficial

Tormenta Tropical… Minimos Visuales?

Posted by Eduardo Gtz en 20 junio 2011

La meteorología es unos de los datos mas importantes al ponerse el mando de una aeronave hay que pensar en las consecuencias de una tormenta tropical, ¿cierto?

Una tormenta tropical es aquel fenómeno de la meteorología que
se describe como parte de la evolución de un ciclón tropical. Específicamente se
habla de este tipo de tormenta cuando la velocidad promedio del viento, durante
un minuto, alcanza cifras dentro del rango de los 63 a los 118 km/h.

Al conocer estos datos podemos ver lo peligroso que llega a ser un “aguacero” en el aire… Podemos salir, encender el motor de “nuestro” Cessna 172 y salir a “tocar y despegar” con estas condiciones? No los encargados de la Seguridad aérea no lo permiten, todo tiene su limite, por ejemplo para un vuelo Visual (VFR) que son las Condiciones meteorológicas VFR (VMC) que solicitan:

Visibilidad-

5 SM a y por encima de 10 000 ft

3 SM por debajo de 10 000 ft

Distancia a las nubes –

3 SM horizontalmente 1000 ft verticalmente

Claro puede ser la hora de probar tus habilidades volando con Instrumentos y con un avión que “no lo voltee el viento” literalmente.

MMAA 200345Z 06011KT 3SM -RA SCT005 BKN010CB OVC090 26/22 A2980 RMK 8/96/ -RAB40

Sorry, the comment form is closed at this time.

 
A %d blogueros les gusta esto: